createdAt,value
2018-04-22T00:02:23.571Z,16.10
2018-04-22T00:05:46.510Z,16.10
2018-04-22T00:09:10.125Z,16.00
2018-04-22T00:12:32.976Z,15.90
2018-04-22T00:15:55.825Z,15.80
2018-04-22T00:19:18.726Z,15.80
2018-04-22T00:22:41.585Z,15.90
2018-04-22T00:26:04.456Z,15.80
2018-04-22T00:29:27.282Z,15.80
2018-04-22T00:32:50.140Z,15.90
2018-04-22T00:36:13.014Z,15.80
2018-04-22T00:39:36.647Z,15.90
2018-04-22T00:42:59.551Z,15.90
2018-04-22T00:46:22.409Z,15.80
2018-04-22T00:49:45.320Z,15.70
2018-04-22T00:53:08.173Z,15.70
2018-04-22T00:56:31.056Z,15.60
2018-04-22T00:59:54.656Z,15.60
2018-04-22T01:03:17.514Z,15.60
2018-04-22T01:06:40.352Z,15.50
2018-04-22T01:10:03.222Z,15.40
2018-04-22T01:13:26.072Z,15.30
2018-04-22T01:16:49.008Z,15.40
2018-04-22T01:20:12.630Z,15.20
2018-04-22T01:23:35.469Z,15.20
2018-04-22T01:26:58.355Z,15.20
2018-04-22T01:30:21.982Z,15.30
2018-04-22T01:33:44.827Z,15.20
2018-04-22T01:37:07.683Z,15.20
2018-04-22T01:40:30.600Z,15.10
2018-04-22T01:43:53.514Z,15.20
2018-04-22T01:47:16.366Z,15.20
2018-04-22T01:50:39.228Z,15.20
2018-04-22T01:54:02.172Z,15.00
2018-04-22T01:57:25.777Z,14.90
2018-04-22T02:00:48.621Z,14.90
2018-04-22T02:04:11.498Z,14.80
2018-04-22T02:07:35.158Z,14.80
2018-04-22T02:10:58.766Z,14.70
2018-04-22T02:14:21.622Z,14.80
2018-04-22T02:17:44.455Z,14.60
2018-04-22T02:21:07.301Z,14.60
2018-04-22T02:24:30.165Z,14.80
2018-04-22T02:27:53.010Z,14.70
2018-04-22T02:31:15.877Z,14.70
2018-04-22T02:34:38.788Z,14.60
2018-04-22T02:38:01.635Z,14.60
2018-04-22T02:41:24.466Z,14.50
2018-04-22T02:44:47.331Z,14.40
2018-04-22T02:48:10.167Z,14.60
2018-04-22T02:51:33.022Z,14.60
2018-04-22T02:54:55.866Z,14.60
2018-04-22T02:58:18.727Z,14.50
2018-04-22T03:01:41.657Z,14.40
2018-04-22T03:05:05.301Z,14.40
2018-04-22T03:08:28.920Z,14.30
2018-04-22T03:11:51.847Z,14.20
2018-04-22T03:15:14.697Z,14.00
2018-04-22T03:18:37.541Z,13.90
2018-04-22T03:22:00.380Z,13.90
2018-04-22T03:25:23.261Z,14.10
2018-04-22T03:28:46.890Z,13.90
2018-04-22T03:32:09.752Z,13.90
2018-04-22T03:35:32.677Z,14.00
2018-04-22T03:38:55.584Z,13.90
2018-04-22T03:42:18.425Z,13.70
2018-04-22T03:45:41.275Z,13.80
2018-04-22T03:49:04.125Z,13.90
2018-04-22T03:52:26.982Z,14.10
2018-04-22T03:55:49.828Z,14.00
2018-04-22T03:59:12.673Z,13.60
2018-04-22T04:02:35.510Z,13.70
2018-04-22T04:05:58.362Z,13.80
2018-04-22T04:09:21.200Z,13.90
2018-04-22T04:12:44.087Z,13.90
2018-04-22T04:16:08.719Z,13.80
2018-04-22T04:19:43.288Z,13.80
2018-04-22T04:23:06.250Z,13.90
2018-04-22T04:30:27.768Z,13.80
2018-04-22T04:33:50.674Z,13.80
2018-04-22T04:37:13.582Z,13.80
2018-04-22T04:40:36.429Z,13.80
2018-04-22T04:43:59.276Z,13.70
2018-04-22T04:47:22.116Z,13.70
2018-04-22T04:50:45.014Z,13.70
2018-04-22T04:54:08.622Z,13.60
2018-04-22T04:57:31.500Z,13.60
2018-04-22T05:00:55.126Z,13.80
2018-04-22T05:04:18.084Z,13.80
2018-04-22T05:07:40.953Z,13.70
2018-04-22T05:11:03.839Z,13.70
2018-04-22T05:14:27.474Z,13.70
2018-04-22T05:17:50.364Z,13.70
2018-04-22T05:21:22.014Z,13.80
2018-04-22T05:24:44.879Z,14.00
2018-04-22T05:28:07.908Z,14.00
2018-04-22T05:31:30.794Z,14.10
2018-04-22T05:34:53.838Z,14.00
2018-04-22T05:38:17.715Z,14.10
2018-04-22T05:41:40.625Z,14.10
2018-04-22T05:45:03.532Z,14.20
2018-04-22T05:48:26.485Z,14.40
2018-04-22T05:51:49.339Z,14.60
2018-04-22T05:55:12.248Z,14.60
2018-04-22T05:58:35.118Z,14.70
2018-04-22T06:01:58.023Z,14.80
2018-04-22T06:05:20.860Z,15.00
2018-04-22T06:08:43.737Z,15.10
2018-04-22T06:12:06.638Z,15.20
2018-04-22T06:15:29.486Z,15.30
2018-04-22T06:18:53.212Z,15.40
2018-04-22T06:22:16.120Z,15.50
2018-04-22T06:25:39.042Z,15.60
2018-04-22T06:29:01.994Z,15.70
2018-04-22T06:32:25.699Z,15.90
2018-04-22T06:35:48.598Z,15.80
2018-04-22T06:39:11.447Z,16.00
2018-04-22T06:42:34.297Z,16.10
2018-04-22T06:45:58.162Z,16.20
2018-04-22T06:49:21.006Z,16.40
2018-04-22T06:52:43.937Z,16.60
2018-04-22T06:56:06.844Z,16.80
2018-04-22T06:59:29.735Z,16.90
2018-04-22T07:02:53.400Z,17.30
2018-04-22T07:06:16.285Z,17.30
2018-04-22T07:09:39.204Z,17.50
2018-04-22T07:13:02.103Z,17.70
2018-04-22T07:16:24.957Z,17.80
2018-04-22T07:19:48.833Z,17.90
2018-04-22T07:23:11.673Z,18.10
2018-04-22T07:26:34.527Z,18.20
2018-04-22T07:29:57.453Z,18.40
2018-04-22T07:33:20.363Z,18.60
2018-04-22T07:36:43.309Z,18.70
2018-04-22T07:40:07.043Z,18.90
2018-04-22T07:43:30.148Z,18.90
2018-04-22T07:46:53.000Z,18.90
2018-04-22T07:50:15.886Z,18.90
2018-04-22T07:53:38.801Z,19.00
2018-04-22T07:57:01.664Z,19.20
2018-04-22T08:00:25.583Z,19.30
2018-04-22T08:03:49.288Z,19.50
2018-04-22T08:07:12.198Z,19.50
2018-04-22T08:10:35.143Z,19.60
2018-04-22T08:13:58.780Z,19.90
2018-04-22T08:17:23.469Z,20.00
2018-04-22T08:20:46.560Z,20.00
2018-04-22T08:24:09.434Z,20.20
2018-04-22T08:27:33.045Z,20.30
2018-04-22T08:30:56.796Z,20.30
2018-04-22T08:34:21.232Z,20.50
2018-04-22T08:37:44.150Z,20.50
2018-04-22T08:41:07.009Z,20.70
2018-04-22T08:44:29.948Z,20.80
2018-04-22T08:47:53.587Z,21.20
2018-04-22T08:51:16.414Z,21.20
2018-04-22T08:54:39.340Z,21.30
2018-04-22T08:58:02.195Z,21.60
2018-04-22T09:01:26.071Z,21.80
2018-04-22T09:04:50.131Z,22.00
2018-04-22T09:08:12.988Z,22.00
2018-04-22T09:11:35.850Z,22.10
2018-04-22T09:14:59.686Z,22.30
2018-04-22T09:18:22.733Z,22.30
2018-04-22T09:21:45.632Z,22.50
2018-04-22T09:25:08.792Z,22.60
2018-04-22T09:28:33.229Z,22.80
2018-04-22T09:31:56.061Z,22.80
2018-04-22T09:35:19.689Z,23.40
2018-04-22T09:38:42.566Z,23.30
2018-04-22T09:42:06.164Z,23.60
2018-04-22T09:45:29.050Z,23.60
2018-04-22T09:48:52.689Z,23.40
2018-04-22T09:52:15.558Z,23.40
2018-04-22T09:55:39.224Z,23.60
2018-04-22T09:59:02.062Z,23.50
2018-04-22T10:02:31.317Z,23.50
2018-04-22T10:05:54.143Z,23.50
2018-04-22T10:09:17.787Z,23.70
2018-04-22T10:12:41.546Z,23.80
2018-04-22T10:16:04.441Z,23.80
2018-04-22T10:19:28.054Z,24.40
2018-04-22T10:22:50.893Z,24.30
2018-04-22T10:26:13.745Z,24.40
2018-04-22T10:29:36.733Z,24.50
2018-04-22T10:32:59.995Z,24.60
2018-04-22T10:36:22.861Z,24.70
2018-04-22T10:39:45.713Z,24.80
2018-04-22T10:43:09.599Z,24.90
2018-04-22T10:46:32.447Z,25.00
2018-04-22T10:49:55.285Z,25.20
2018-04-22T10:53:18.129Z,25.00
2018-04-22T10:56:40.989Z,25.20
2018-04-22T11:00:03.933Z,25.40
2018-04-22T11:03:27.550Z,25.60
2018-04-22T11:06:50.377Z,25.50
2018-04-22T11:10:15.659Z,25.80
2018-04-22T11:13:39.714Z,25.60
2018-04-22T11:17:02.682Z,25.70
2018-04-22T11:20:25.616Z,25.70
2018-04-22T11:23:50.584Z,26.00
2018-04-22T11:27:13.494Z,26.10
2018-04-22T11:30:36.902Z,26.30
2018-04-22T11:34:01.007Z,26.80
2018-04-22T11:37:25.103Z,26.90
2018-04-22T11:40:47.957Z,26.90
2018-04-22T11:44:10.983Z,27.20
2018-04-22T11:47:34.621Z,27.20
2018-04-22T11:50:58.036Z,27.20
2018-04-22T11:54:21.207Z,27.10
2018-04-22T11:57:44.859Z,27.00
2018-04-22T12:01:08.618Z,26.70
2018-04-22T12:04:31.554Z,26.70
2018-04-22T12:07:54.846Z,26.80
2018-04-22T12:11:18.564Z,27.60
2018-04-22T12:14:41.522Z,27.50
2018-04-22T12:18:04.338Z,27.50
2018-04-22T12:21:28.114Z,27.90
2018-04-22T12:24:51.246Z,27.90
2018-04-22T12:28:14.114Z,28.00
2018-04-22T12:31:37.369Z,28.30
2018-04-22T12:35:00.203Z,28.30
2018-04-22T12:38:23.154Z,27.90
2018-04-22T12:41:46.022Z,27.80
2018-04-22T12:45:09.690Z,27.40
2018-04-22T12:48:34.091Z,27.30
2018-04-22T12:51:56.974Z,27.10
2018-04-22T12:55:20.575Z,27.20
2018-04-22T12:58:43.449Z,27.20
2018-04-22T13:02:06.364Z,27.20
2018-04-22T13:05:29.236Z,27.60
2018-04-22T13:08:52.157Z,27.90
2018-04-22T13:12:15.767Z,28.00
2018-04-22T13:15:38.833Z,28.00
2018-04-22T13:19:01.736Z,28.20
2018-04-22T13:22:24.652Z,28.00
2018-04-22T13:25:50.771Z,27.90
2018-04-22T13:29:14.437Z,27.60
2018-04-22T13:32:37.298Z,27.50
2018-04-22T13:36:00.250Z,27.30
2018-04-22T13:39:23.930Z,27.30
2018-04-22T13:42:49.866Z,27.40
2018-04-22T13:46:13.459Z,27.20
2018-04-22T13:49:42.817Z,27.10
2018-04-22T13:53:05.741Z,27.40
2018-04-22T13:56:30.413Z,27.60
2018-04-22T13:59:54.030Z,27.70
2018-04-22T14:03:17.034Z,27.70
2018-04-22T14:06:39.882Z,27.80
2018-04-22T14:10:02.788Z,27.80
2018-04-22T14:13:25.712Z,27.60
2018-04-22T14:16:48.562Z,27.90
2018-04-22T14:20:11.474Z,27.80
2018-04-22T14:23:34.341Z,27.70
2018-04-22T14:26:57.178Z,27.80
2018-04-22T14:30:20.465Z,28.00
2018-04-22T14:33:53.487Z,28.30
2018-04-22T14:37:16.359Z,28.30
2018-04-22T14:40:39.270Z,28.20
2018-04-22T14:44:14.103Z,28.40
2018-04-22T14:47:37.051Z,28.60
2018-04-22T14:51:00.723Z,28.60
2018-04-22T14:54:23.574Z,28.50
2018-04-22T14:57:46.501Z,27.90
2018-04-22T15:01:09.346Z,28.40
2018-04-22T15:04:35.731Z,28.80
2018-04-22T15:08:03.953Z,29.00
2018-04-22T15:11:26.883Z,29.40
2018-04-22T15:14:50.553Z,29.60
2018-04-22T15:18:13.476Z,29.50
2018-04-22T15:21:36.416Z,29.90
2018-04-22T15:24:59.386Z,30.00
2018-04-22T15:28:22.244Z,30.20
2018-04-22T15:31:45.240Z,29.80
2018-04-22T15:35:08.089Z,29.30
2018-04-22T15:38:30.954Z,29.30
2018-04-22T15:41:53.853Z,29.40
2018-04-22T15:45:16.823Z,29.60
2018-04-22T15:48:40.759Z,29.50
2018-04-22T15:52:04.518Z,29.90
2018-04-22T15:55:29.307Z,29.90
2018-04-22T16:03:09.022Z,29.10
2018-04-22T16:06:31.903Z,29.10
2018-04-22T16:09:55.847Z,29.20
2018-04-22T16:13:18.980Z,29.60
2018-04-22T16:16:41.924Z,29.80
2018-04-22T16:20:05.615Z,30.10
2018-04-22T16:23:28.468Z,30.10
2018-04-22T16:26:51.383Z,30.20
2018-04-22T16:30:14.263Z,30.00
2018-04-22T16:33:37.951Z,29.30
2018-04-22T16:37:00.844Z,29.20
2018-04-22T16:40:23.758Z,29.10
2018-04-22T16:43:47.858Z,29.20
2018-04-22T16:47:10.746Z,29.30
2018-04-22T16:50:34.934Z,29.00
2018-04-22T16:53:57.799Z,28.90
2018-04-22T16:57:20.707Z,28.80
2018-04-22T17:00:43.985Z,28.80
2018-04-22T17:04:06.905Z,28.60
2018-04-22T17:07:29.837Z,28.40
2018-04-22T17:10:52.773Z,28.30
2018-04-22T17:14:15.747Z,28.10
2018-04-22T17:17:38.619Z,28.10
2018-04-22T17:21:01.480Z,28.00
2018-04-22T17:24:25.876Z,27.50
2018-04-22T17:27:49.568Z,27.30
2018-04-22T17:31:12.571Z,27.30
2018-04-22T17:34:36.318Z,26.80
2018-04-22T17:37:59.192Z,26.80
2018-04-22T17:41:22.124Z,26.60
2018-04-22T17:44:45.387Z,26.30
2018-04-22T17:48:08.266Z,26.00
2018-04-22T17:51:32.668Z,25.70
2018-04-22T17:54:55.625Z,25.70
2018-04-22T17:58:18.601Z,25.50
2018-04-22T18:01:41.582Z,25.30
2018-04-22T18:05:04.388Z,25.00
2018-04-22T18:08:28.891Z,24.60
2018-04-22T18:11:51.809Z,24.60
2018-04-22T18:15:14.696Z,24.40
2018-04-22T18:18:38.351Z,23.90
2018-04-22T18:22:01.974Z,23.80
2018-04-22T18:25:25.855Z,23.80
2018-04-22T18:28:49.465Z,23.40
2018-04-22T18:32:12.329Z,23.40
2018-04-22T18:35:35.386Z,23.20
2018-04-22T18:38:58.311Z,23.00
2018-04-22T18:42:21.162Z,22.90
2018-04-22T18:45:44.092Z,22.70
2018-04-22T18:49:07.136Z,22.60
2018-04-22T18:52:29.984Z,22.50
2018-04-22T19:03:47.329Z,22.10
2018-04-22T19:07:15.454Z,22.10
2018-04-22T19:10:38.404Z,22.10
2018-04-22T19:14:01.459Z,22.10
2018-04-22T19:17:24.510Z,22.00
2018-04-22T19:20:47.430Z,22.00
2018-04-22T19:24:10.666Z,22.00
2018-04-22T19:27:33.591Z,21.90
2018-04-22T19:30:56.671Z,22.00
2018-04-22T19:34:21.033Z,22.10
2018-04-22T19:37:44.892Z,22.20
2018-04-22T19:41:07.871Z,22.20
2018-04-22T19:44:31.200Z,22.10
2018-04-22T19:47:54.097Z,21.80
2018-04-22T19:51:17.024Z,21.60
2018-04-22T19:54:40.946Z,21.50
2018-04-22T19:58:03.884Z,21.40
2018-04-22T20:01:26.817Z,21.40
2018-04-22T20:04:50.470Z,21.30
2018-04-22T20:08:14.093Z,21.30
2018-04-22T20:11:37.002Z,21.20
2018-04-22T20:14:59.923Z,21.30
2018-04-22T20:18:24.238Z,21.30
2018-04-22T20:21:47.219Z,21.20
2018-04-22T20:25:10.148Z,21.00
2018-04-22T20:28:35.543Z,21.00
2018-04-22T20:31:58.469Z,20.90
2018-04-22T20:35:22.133Z,20.80
2018-04-22T20:38:46.641Z,20.80
2018-04-22T20:42:10.257Z,20.70
2018-04-22T20:45:33.262Z,20.70
2018-04-22T20:48:56.212Z,20.60
2018-04-22T20:52:19.853Z,20.50
2018-04-22T20:55:43.461Z,20.50
2018-04-22T20:59:06.329Z,20.40
2018-04-22T21:02:29.174Z,20.40
2018-04-22T21:05:52.011Z,20.30
2018-04-22T21:09:14.896Z,20.30
2018-04-22T21:12:38.650Z,20.20
2018-04-22T21:16:01.532Z,20.20
2018-04-22T21:19:25.160Z,19.90
2018-04-22T21:22:48.073Z,19.90
2018-04-22T21:26:11.067Z,19.80
2018-04-22T21:29:33.931Z,19.70
2018-04-22T21:32:57.573Z,19.70
2018-04-22T21:36:20.487Z,19.60
2018-04-22T21:39:44.339Z,19.60
2018-04-22T21:43:07.195Z,19.60
2018-04-22T21:46:30.126Z,19.60
2018-04-22T21:49:53.007Z,19.50
2018-04-22T21:53:16.708Z,19.40
2018-04-22T21:56:40.794Z,19.40
2018-04-22T22:00:03.844Z,19.30
2018-04-22T22:03:26.694Z,19.30
2018-04-22T22:06:49.544Z,19.10
2018-04-22T22:10:12.470Z,19.10
2018-04-22T22:13:35.389Z,19.00
2018-04-22T22:16:58.237Z,19.00
2018-04-22T22:20:21.085Z,18.90
2018-04-22T22:23:43.925Z,18.90
2018-04-22T22:27:06.834Z,18.90
2018-04-22T22:30:29.703Z,18.80
2018-04-22T22:33:52.601Z,18.80
2018-04-22T22:37:15.450Z,18.80
2018-04-22T22:40:38.317Z,18.80
2018-04-22T22:44:01.223Z,18.80
2018-04-22T22:47:24.169Z,18.70
2018-04-22T22:50:47.789Z,18.60
2018-04-22T22:54:10.633Z,18.60
2018-04-22T22:57:33.485Z,18.50
2018-04-22T23:00:57.356Z,18.50
2018-04-22T23:04:20.213Z,18.40
2018-04-22T23:07:43.042Z,18.40
2018-04-22T23:11:05.885Z,18.30
2018-04-22T23:14:28.745Z,18.40
2018-04-22T23:17:51.588Z,18.40
2018-04-22T23:21:14.432Z,18.20
2018-04-22T23:24:37.253Z,18.20
2018-04-22T23:28:00.867Z,18.00
2018-04-22T23:31:23.721Z,18.00
2018-04-22T23:34:46.568Z,18.10
2018-04-22T23:38:09.406Z,17.90
2018-04-22T23:41:32.257Z,17.90
2018-04-22T23:44:55.101Z,17.80
2018-04-22T23:48:17.945Z,17.80
2018-04-22T23:51:40.801Z,17.70
2018-04-22T23:55:03.719Z,17.80
2018-04-22T23:58:26.585Z,17.80
